createdAt,value
2019-04-05T00:01:32.022Z,87.80
2019-04-05T00:03:58.848Z,87.80
2019-04-05T00:06:25.629Z,88.00
2019-04-05T00:08:52.432Z,88.20
2019-04-05T00:11:19.572Z,88.10
2019-04-05T00:13:46.376Z,88.40
2019-04-05T00:16:13.228Z,88.30
2019-04-05T00:18:40.011Z,88.30
2019-04-05T00:21:06.789Z,88.40
2019-04-05T00:23:33.684Z,88.50
2019-04-05T00:26:00.517Z,88.50
2019-04-05T00:28:27.335Z,88.50
2019-04-05T00:30:54.181Z,88.90
2019-04-05T00:33:21.052Z,88.90
2019-04-05T00:35:47.832Z,89.10
2019-04-05T00:38:14.672Z,88.90
2019-04-05T00:40:41.504Z,88.80
2019-04-05T00:43:08.281Z,88.70
2019-04-05T00:45:35.111Z,88.80
2019-04-05T00:48:01.901Z,88.90
2019-04-05T00:50:28.728Z,88.80
2019-04-05T00:52:55.524Z,89.20
2019-04-05T00:55:22.475Z,89.30
2019-04-05T00:57:49.548Z,89.20
2019-04-05T01:00:16.798Z,89.20
2019-04-05T01:02:43.576Z,89.40
2019-04-05T01:05:12.219Z,89.80
2019-04-05T01:07:39.197Z,90.10
2019-04-05T01:10:06.487Z,90.00
2019-04-05T01:12:33.317Z,90.10
2019-04-05T01:15:00.536Z,90.20
2019-04-05T01:17:27.813Z,90.40
2019-04-05T01:19:58.196Z,90.30
2019-04-05T01:22:26.525Z,90.50
2019-04-05T01:24:53.307Z,90.40
2019-04-05T01:27:23.365Z,89.90
2019-04-05T01:29:50.742Z,89.80
2019-04-05T01:32:17.612Z,89.60
2019-04-05T01:34:44.444Z,89.80
2019-04-05T01:37:11.219Z,90.00
2019-04-05T01:39:38.052Z,89.90
2019-04-05T01:42:05.844Z,90.10
2019-04-05T01:44:33.064Z,90.20
2019-04-05T01:47:00.008Z,90.40
2019-04-05T01:49:26.844Z,90.10
2019-04-05T01:51:53.820Z,90.00
2019-04-05T01:54:20.652Z,89.80
2019-04-05T01:56:47.433Z,90.40
2019-04-05T01:59:14.270Z,90.50
2019-04-05T02:01:41.092Z,90.30
2019-04-05T02:04:07.934Z,90.40
2019-04-05T02:06:34.693Z,90.60
2019-04-05T02:09:01.565Z,90.70
2019-04-05T02:11:28.415Z,90.80
2019-04-05T02:13:55.244Z,90.60
2019-04-05T02:16:22.081Z,90.70
2019-04-05T02:18:49.260Z,90.30
2019-04-05T02:21:16.091Z,90.50
2019-04-05T02:23:42.883Z,90.30
2019-04-05T02:26:09.824Z,89.90
2019-04-05T02:28:36.616Z,90.10
2019-04-05T02:31:03.642Z,89.90
2019-04-05T02:33:30.522Z,89.80
2019-04-05T02:35:58.870Z,89.60
2019-04-05T02:38:25.663Z,89.60
2019-04-05T02:40:53.836Z,89.80
2019-04-05T02:43:21.987Z,89.70
2019-04-05T02:45:49.378Z,89.80
2019-04-05T02:48:17.550Z,89.70
2019-04-05T02:50:48.017Z,89.60
2019-04-05T02:53:17.300Z,89.80
2019-04-05T02:55:45.536Z,89.80
2019-04-05T02:58:13.007Z,89.90
2019-04-05T03:00:40.949Z,89.70
2019-04-05T03:03:07.781Z,89.70
2019-04-05T03:05:35.568Z,89.50
2019-04-05T03:08:03.300Z,89.60
2019-04-05T03:10:54.609Z,89.60
2019-04-05T03:13:23.248Z,89.70
2019-04-05T03:15:51.537Z,89.50
2019-04-05T03:18:18.968Z,89.70
2019-04-05T03:20:45.950Z,89.50
2019-04-05T03:23:13.733Z,89.60
2019-04-05T03:25:40.761Z,89.80
2019-04-05T03:28:07.940Z,89.70
2019-04-05T03:30:35.182Z,89.80
2019-04-05T03:33:02.189Z,89.70
2019-04-05T03:35:29.115Z,89.60
2019-04-05T03:37:56.293Z,89.70
2019-04-05T03:40:23.077Z,89.50
2019-04-05T03:42:50.106Z,89.50
2019-04-05T03:45:17.142Z,89.60
2019-04-05T03:47:44.114Z,89.80
2019-04-05T03:50:11.264Z,89.90
2019-04-05T03:52:38.245Z,90.20
2019-04-05T03:55:05.625Z,90.50
2019-04-05T03:57:32.467Z,90.30
2019-04-05T03:59:59.344Z,90.20
2019-04-05T04:02:26.172Z,90.20
2019-04-05T04:04:53.754Z,90.00
2019-04-05T04:07:20.701Z,89.80
2019-04-05T04:09:47.550Z,90.00
2019-04-05T04:12:14.434Z,89.90
2019-04-05T04:14:41.290Z,90.00
2019-04-05T04:17:12.950Z,90.00
2019-04-05T04:19:37.685Z,90.20
2019-04-05T04:22:20.296Z,90.30
2019-04-05T04:24:47.724Z,90.40
2019-04-05T04:27:15.013Z,90.50
2019-04-05T04:29:41.856Z,90.50
2019-04-05T04:32:08.655Z,90.60
2019-04-05T04:34:35.537Z,90.60
2019-04-05T04:37:03.621Z,90.00
2019-04-05T04:39:30.801Z,90.00
2019-04-05T04:41:57.643Z,90.10
2019-04-05T04:44:24.980Z,90.20
2019-04-05T04:46:52.368Z,89.60
2019-04-05T04:49:19.610Z,89.60
2019-04-05T04:51:46.640Z,89.80
2019-04-05T04:54:13.432Z,89.90
2019-04-05T04:56:40.368Z,90.00
2019-04-05T04:59:07.148Z,90.60
2019-04-05T05:01:34.084Z,90.80
2019-04-05T05:04:00.872Z,90.80
2019-04-05T05:06:28.205Z,90.80
2019-04-05T05:08:55.036Z,90.70
2019-04-05T05:11:21.921Z,90.80
2019-04-05T05:13:48.752Z,90.80
2019-04-05T05:16:15.884Z,91.20
2019-04-05T05:18:42.920Z,91.20
2019-04-05T05:21:09.919Z,91.00
2019-04-05T05:23:36.944Z,90.60
2019-04-05T05:26:03.838Z,90.80
2019-04-05T05:28:32.804Z,90.60
2019-04-05T05:30:59.304Z,90.80
2019-04-05T05:33:26.093Z,90.80
2019-04-05T05:35:53.026Z,91.00
2019-04-05T05:38:19.990Z,91.10
2019-04-05T05:40:53.534Z,91.10
2019-04-05T05:43:23.591Z,91.90
2019-04-05T05:45:49.269Z,92.40
2019-04-05T05:48:17.062Z,93.00
2019-04-05T05:50:44.326Z,93.00
2019-04-05T05:53:12.697Z,93.20
2019-04-05T05:55:39.761Z,93.80
2019-04-05T05:58:06.826Z,93.20
2019-04-05T06:00:33.821Z,93.40
2019-04-05T06:03:00.735Z,94.30
2019-04-05T06:05:27.712Z,94.30
2019-04-05T06:07:54.489Z,94.70
2019-04-05T06:10:21.347Z,95.90
2019-04-05T06:12:48.129Z,96.10
2019-04-05T06:15:14.914Z,96.50
2019-04-05T06:17:42.061Z,96.70
2019-04-05T06:20:09.350Z,96.20
2019-04-05T06:22:36.187Z,96.70
2019-04-05T06:25:05.170Z,96.00
2019-04-05T06:27:35.163Z,96.30
2019-04-05T06:30:00.757Z,95.60
2019-04-05T06:32:27.593Z,95.70
2019-04-05T06:34:54.817Z,95.40
2019-04-05T06:37:21.670Z,95.10
2019-04-05T06:39:48.503Z,95.20
2019-04-05T06:42:15.303Z,94.60
2019-04-05T06:44:42.588Z,94.00
2019-04-05T06:47:09.488Z,93.70
2019-04-05T06:49:36.316Z,93.90
2019-04-05T06:52:03.263Z,93.90
2019-04-05T06:54:30.050Z,94.00
2019-04-05T06:56:56.900Z,93.10
2019-04-05T06:59:23.697Z,92.80
2019-04-05T07:01:50.535Z,94.10
2019-04-05T07:04:17.324Z,94.90
2019-04-05T07:06:44.177Z,94.70
2019-04-05T07:09:11.005Z,94.40
2019-04-05T07:11:37.797Z,93.60
2019-04-05T07:14:04.591Z,94.20
2019-04-05T07:16:31.380Z,92.80
2019-04-05T07:18:58.240Z,92.10
2019-04-05T07:21:25.024Z,90.70
2019-04-05T07:23:52.084Z,91.30
2019-04-05T07:26:20.967Z,92.10
2019-04-05T07:28:47.623Z,91.40
2019-04-05T07:31:14.400Z,91.40
2019-04-05T07:33:41.333Z,91.10
2019-04-05T07:36:08.494Z,90.10
2019-04-05T07:38:35.695Z,90.40
2019-04-05T07:41:02.536Z,89.90
2019-04-05T07:43:29.343Z,88.20
2019-04-05T07:45:56.181Z,88.60
2019-04-05T07:48:22.962Z,88.60
2019-04-05T07:50:49.807Z,87.80
2019-04-05T07:53:16.591Z,86.20
2019-04-05T07:55:43.429Z,85.80
2019-04-05T07:58:10.216Z,85.00
2019-04-05T08:00:48.870Z,85.60
2019-04-05T08:03:16.364Z,84.90
2019-04-05T08:05:43.356Z,85.40
2019-04-05T08:08:19.633Z,86.00
2019-04-05T08:10:46.630Z,85.90
2019-04-05T08:13:14.595Z,85.70
2019-04-05T08:15:41.984Z,86.90
2019-04-05T08:18:08.840Z,86.20
2019-04-05T08:20:35.672Z,86.40
2019-04-05T08:23:02.510Z,86.40
2019-04-05T08:25:29.297Z,86.50
2019-04-05T08:27:56.132Z,86.50
2019-04-05T08:30:22.949Z,86.60
2019-04-05T08:32:49.821Z,85.60
2019-04-05T08:35:16.656Z,85.30
2019-04-05T08:37:43.452Z,85.50
2019-04-05T08:40:10.593Z,84.60
2019-04-05T08:42:37.372Z,85.20
2019-04-05T08:45:05.600Z,85.70
2019-04-05T08:47:32.396Z,85.70
2019-04-05T08:49:59.258Z,86.00
2019-04-05T08:52:27.128Z,85.60
2019-04-05T08:54:54.315Z,86.10
2019-04-05T08:57:21.153Z,87.00
2019-04-05T08:59:48.001Z,86.10
2019-04-05T09:02:14.852Z,86.50
2019-04-05T09:04:41.996Z,86.40
2019-04-05T09:07:08.794Z,86.90
2019-04-05T09:09:35.835Z,87.20
2019-04-05T09:12:11.177Z,87.20
2019-04-05T09:14:38.264Z,86.20
2019-04-05T09:17:05.097Z,87.10
2019-04-05T09:19:31.881Z,86.90
2019-04-05T09:21:58.842Z,86.50
2019-04-05T09:24:25.633Z,86.00
2019-04-05T09:26:54.270Z,85.90
2019-04-05T09:29:21.084Z,87.00
2019-04-05T09:31:47.956Z,87.30
2019-04-05T09:34:15.222Z,87.10
2019-04-05T09:36:41.997Z,87.30
2019-04-05T09:39:15.270Z,87.20
2019-04-05T09:41:39.328Z,87.60
2019-04-05T09:44:06.178Z,88.10
2019-04-05T09:46:45.648Z,88.10
2019-04-05T09:49:01.604Z,88.00
2019-04-05T09:51:28.448Z,88.30
2019-04-05T09:53:55.339Z,87.30
2019-04-05T09:56:22.199Z,88.10
2019-04-05T09:58:48.982Z,88.30
2019-04-05T10:01:15.818Z,87.10
2019-04-05T10:03:42.609Z,87.30
2019-04-05T10:06:09.421Z,87.20
2019-04-05T10:08:36.232Z,87.60
2019-04-05T10:11:03.018Z,86.90
2019-04-05T10:13:29.865Z,86.80
2019-04-05T10:15:56.642Z,87.40
2019-04-05T10:18:23.465Z,87.10
2019-04-05T10:20:50.265Z,87.30
2019-04-05T10:23:17.149Z,87.30
2019-04-05T10:25:44.269Z,87.10
2019-04-05T10:28:11.272Z,86.10
2019-04-05T10:30:38.108Z,85.10
2019-04-05T10:33:04.958Z,84.50
2019-04-05T10:35:31.811Z,84.30
2019-04-05T10:37:58.627Z,83.80
2019-04-05T10:40:25.445Z,84.00
2019-04-05T10:42:52.284Z,84.20
2019-04-05T10:45:19.076Z,84.10
2019-04-05T10:47:45.934Z,83.30
2019-04-05T10:50:13.701Z,83.10
2019-04-05T10:52:40.481Z,82.50
2019-04-05T10:55:08.052Z,82.60
2019-04-05T10:57:34.916Z,82.30
2019-04-05T11:00:01.873Z,81.20
2019-04-05T11:02:28.713Z,81.40
2019-04-05T11:04:55.502Z,81.90
2019-04-05T11:07:22.404Z,80.90
2019-04-05T11:09:49.193Z,80.50
2019-04-05T11:12:16.035Z,80.50
2019-04-05T11:14:42.884Z,80.20
2019-04-05T11:17:09.740Z,80.50
2019-04-05T11:19:36.520Z,80.70
2019-04-05T11:22:03.567Z,80.20
2019-04-05T11:24:30.401Z,79.60
2019-04-05T11:26:57.250Z,79.60
2019-04-05T11:29:24.101Z,79.80
2019-04-05T11:31:56.900Z,81.30
2019-04-05T11:34:19.477Z,82.30
2019-04-05T11:36:46.308Z,82.10
2019-04-05T11:39:13.318Z,81.60
2019-04-05T11:41:41.809Z,81.70
2019-04-05T11:44:08.688Z,80.40
2019-04-05T11:46:37.465Z,81.10
2019-04-05T11:49:04.573Z,81.20
2019-04-05T11:51:31.503Z,81.90
2019-04-05T11:53:58.292Z,81.90
2019-04-05T11:56:25.129Z,81.40
2019-04-05T11:58:51.913Z,81.40
2019-04-05T12:01:23.841Z,80.80
2019-04-05T12:03:50.620Z,81.60
2019-04-05T12:06:17.450Z,80.90
2019-04-05T12:08:44.239Z,81.00
2019-04-05T12:11:11.078Z,79.90
2019-04-05T12:13:37.860Z,79.70
2019-04-05T12:16:06.144Z,80.20
2019-04-05T12:18:34.786Z,80.10
2019-04-05T12:21:05.031Z,81.10
2019-04-05T12:23:33.365Z,80.70
2019-04-05T12:25:59.314Z,80.90
2019-04-05T12:28:26.164Z,81.10
2019-04-05T12:30:53.396Z,80.60
2019-04-05T12:33:20.454Z,80.20
2019-04-05T12:35:47.412Z,80.60
2019-04-05T12:38:27.974Z,80.30
2019-04-05T12:40:44.692Z,80.50
2019-04-05T12:43:13.613Z,80.20
2019-04-05T12:45:40.113Z,80.70
2019-04-05T12:48:06.949Z,81.40
2019-04-05T12:50:33.745Z,80.60
2019-04-05T12:53:00.744Z,80.30
2019-04-05T12:55:27.540Z,80.20
2019-04-05T12:57:56.185Z,79.60
2019-04-05T13:00:25.717Z,79.00
2019-04-05T13:02:51.702Z,79.80
2019-04-05T13:05:20.662Z,80.00
2019-04-05T13:07:47.169Z,79.40
2019-04-05T13:10:13.993Z,79.40
2019-04-05T13:12:40.768Z,79.10
2019-04-05T13:15:13.728Z,78.80
2019-04-05T13:17:36.396Z,78.80
2019-04-05T13:20:07.880Z,79.30
2019-04-05T13:22:34.712Z,78.30
2019-04-05T13:25:01.558Z,78.70
2019-04-05T13:27:28.360Z,78.50
2019-04-05T13:29:55.201Z,78.90
2019-04-05T13:32:22.528Z,79.40
2019-04-05T13:34:49.373Z,80.20
2019-04-05T13:37:20.606Z,80.40
2019-04-05T13:39:44.840Z,81.60
2019-04-05T13:42:11.686Z,82.20
2019-04-05T13:44:38.468Z,82.50
2019-04-05T13:47:08.087Z,82.40
2019-04-05T13:49:34.737Z,83.20
2019-04-05T13:52:01.524Z,82.50
2019-04-05T13:54:28.365Z,82.20
2019-04-05T13:56:55.150Z,82.80
2019-04-05T13:59:22.049Z,82.10
2019-04-05T14:01:51.471Z,81.30
2019-04-05T14:04:20.650Z,80.80
2019-04-05T14:06:46.168Z,80.70
2019-04-05T14:09:15.522Z,80.60
2019-04-05T14:11:41.629Z,81.50
2019-04-05T14:14:11.821Z,82.60
2019-04-05T14:16:38.389Z,82.70
2019-04-05T14:19:05.377Z,82.40
2019-04-05T14:21:40.215Z,81.50
2019-04-05T14:24:00.805Z,81.60
2019-04-05T14:26:29.341Z,81.20
2019-04-05T14:28:56.375Z,81.00
2019-04-05T14:31:23.157Z,81.60
2019-04-05T14:33:49.944Z,81.60
2019-04-05T14:36:16.780Z,83.00
2019-04-05T14:38:43.570Z,81.80
2019-04-05T14:41:10.404Z,81.30
2019-04-05T14:43:37.925Z,82.00
2019-04-05T14:46:04.928Z,82.30
2019-04-05T14:48:31.984Z,81.80
2019-04-05T14:50:58.911Z,82.10
2019-04-05T14:53:25.755Z,82.50
2019-04-05T14:55:52.629Z,81.40
2019-04-05T14:58:19.532Z,81.30
2019-04-05T15:00:48.270Z,81.40
2019-04-05T15:03:15.128Z,81.80
2019-04-05T15:05:42.067Z,82.10
2019-04-05T15:08:08.857Z,82.20
2019-04-05T15:10:35.709Z,82.70
2019-04-05T15:13:02.488Z,81.90
2019-04-05T15:15:29.431Z,82.00
2019-04-05T15:17:56.340Z,82.30
2019-04-05T15:20:23.172Z,81.60
2019-04-05T15:22:50.021Z,81.80
2019-04-05T15:25:18.779Z,82.00
2019-04-05T15:27:45.433Z,81.60
2019-04-05T15:30:15.074Z,81.60
2019-04-05T15:32:41.693Z,81.30
2019-04-05T15:35:08.544Z,81.40
2019-04-05T15:37:37.506Z,82.20
2019-04-05T15:40:06.101Z,81.80
2019-04-05T15:42:32.963Z,81.80
2019-04-05T15:44:59.744Z,81.40
2019-04-05T15:47:26.612Z,81.90
2019-04-05T15:49:53.444Z,81.90
2019-04-05T15:52:20.273Z,81.40
2019-04-05T15:54:47.140Z,81.50
2019-04-05T15:57:13.928Z,80.70
2019-04-05T15:59:40.761Z,81.20
2019-04-05T16:02:07.544Z,80.40
2019-04-05T16:04:34.421Z,80.80
2019-04-05T16:07:01.205Z,80.80
2019-04-05T16:09:28.054Z,80.20
2019-04-05T16:11:55.241Z,80.00
2019-04-05T16:14:22.111Z,80.00
2019-04-05T16:16:48.921Z,78.80
2019-04-05T16:19:15.808Z,80.10
2019-04-05T16:21:42.592Z,81.00
2019-04-05T16:24:09.449Z,80.80
2019-04-05T16:26:36.294Z,81.30
2019-04-05T16:29:03.290Z,82.00
2019-04-05T16:31:30.160Z,82.20
2019-04-05T16:33:56.949Z,82.30
2019-04-05T16:36:23.863Z,82.30
2019-04-05T16:38:50.910Z,82.00
2019-04-05T16:41:17.956Z,82.50
2019-04-05T16:43:44.845Z,82.90
2019-04-05T16:46:11.776Z,83.30
2019-04-05T16:48:38.689Z,83.50
2019-04-05T16:51:05.632Z,83.30
2019-04-05T16:53:32.679Z,83.60
2019-04-05T16:55:59.725Z,83.50
2019-04-05T16:58:26.668Z,83.70
2019-04-05T17:00:53.612Z,83.80
2019-04-05T17:03:20.557Z,84.30
2019-04-05T17:05:47.502Z,84.70
2019-04-05T17:08:14.548Z,84.80
2019-04-05T17:10:41.493Z,85.40
2019-04-05T17:13:08.372Z,85.80
2019-04-05T17:15:35.156Z,85.90
2019-04-05T17:18:02.111Z,86.10
2019-04-05T17:20:29.016Z,86.60
2019-04-05T17:22:58.287Z,87.00
2019-04-05T17:25:24.677Z,87.50
2019-04-05T17:27:51.473Z,87.50
2019-04-05T17:30:18.252Z,87.60
2019-04-05T17:32:45.090Z,87.50
2019-04-05T17:35:12.124Z,88.10
2019-04-05T17:37:38.910Z,88.30
2019-04-05T17:40:07.404Z,88.70
2019-04-05T17:42:34.936Z,88.90
2019-04-05T17:45:02.049Z,89.30
2019-04-05T17:47:28.823Z,89.80
2019-04-05T17:49:58.580Z,89.80
2019-04-05T17:52:25.429Z,90.10
2019-04-05T17:54:52.429Z,90.40
2019-04-05T17:57:19.764Z,90.60
2019-04-05T17:59:46.760Z,90.50
2019-04-05T18:02:13.768Z,90.40
2019-04-05T18:04:40.560Z,90.40
2019-04-05T18:07:27.137Z,90.60
2019-04-05T18:09:53.980Z,90.70
2019-04-05T18:12:20.809Z,90.80
2019-04-05T18:14:49.955Z,90.70
2019-04-05T18:17:16.244Z,90.80
2019-04-05T18:19:43.080Z,90.80
2019-04-05T18:22:09.917Z,90.70
2019-04-05T18:24:36.756Z,90.50
2019-04-05T18:27:03.597Z,90.50
2019-04-05T18:29:30.380Z,90.70
2019-04-05T18:31:57.292Z,91.10
2019-04-05T18:34:24.129Z,91.30
2019-04-05T18:36:50.917Z,91.90
2019-04-05T18:39:17.707Z,91.90
2019-04-05T18:41:44.585Z,91.90
2019-04-05T18:44:11.420Z,91.90
2019-04-05T18:46:38.326Z,91.80
2019-04-05T18:49:05.377Z,91.60
2019-04-05T18:51:32.253Z,91.70
2019-04-05T18:53:59.264Z,91.70
2019-04-05T18:56:26.206Z,91.70
2019-04-05T18:58:53.209Z,91.50
2019-04-05T19:01:20.331Z,91.50
2019-04-05T19:03:49.543Z,91.50
2019-04-05T19:06:17.772Z,91.60
2019-04-05T19:08:46.254Z,91.60
2019-04-05T19:11:14.016Z,91.50
2019-04-05T19:13:41.380Z,91.70
2019-04-05T19:16:08.635Z,92.20
2019-04-05T19:18:35.778Z,92.40
2019-04-05T19:21:03.226Z,92.40
2019-04-05T19:23:31.831Z,92.50
2019-04-05T19:25:58.753Z,92.50
2019-04-05T19:28:27.233Z,92.40
2019-04-05T19:48:34.872Z,92.30
2019-04-05T19:50:45.808Z,92.30
2019-04-05T19:53:12.686Z,92.20
2019-04-05T19:55:41.277Z,91.60
2019-04-05T19:58:08.279Z,91.00
2019-04-05T20:00:35.223Z,91.10
2019-04-05T20:03:02.270Z,91.50
2019-04-05T20:05:29.214Z,92.30
2019-04-05T20:07:56.261Z,92.70
2019-04-05T20:10:23.205Z,92.90
2019-04-05T20:12:50.252Z,93.10
2019-04-05T20:15:17.236Z,93.20
2019-04-05T20:17:44.247Z,92.90
2019-04-05T20:20:11.497Z,92.80
2019-04-05T20:22:38.439Z,93.00
2019-04-05T20:25:05.794Z,93.20
2019-04-05T20:27:32.634Z,93.40
2019-04-05T20:29:59.578Z,93.80
2019-04-05T20:32:26.533Z,94.00
2019-04-05T20:34:53.572Z,93.90
2019-04-05T20:37:20.514Z,93.80
2019-04-05T20:39:47.571Z,93.30
2019-04-05T20:42:14.629Z,93.70
2019-04-05T20:44:41.551Z,93.60
2019-04-05T20:47:08.597Z,93.10
2019-04-05T20:49:35.542Z,93.40
2019-04-05T20:52:02.588Z,93.40
2019-04-05T20:54:29.637Z,93.40
2019-04-05T20:56:56.579Z,93.40
2019-04-05T20:59:23.626Z,93.50
2019-04-05T21:01:50.676Z,93.70
2019-04-05T21:04:17.617Z,93.50
2019-04-05T21:06:44.561Z,93.20
2019-04-05T21:09:11.607Z,93.00
2019-04-05T21:11:38.552Z,92.80
2019-04-05T21:14:05.496Z,92.80
2019-04-05T21:16:32.440Z,92.60
2019-04-05T21:18:59.486Z,92.60
2019-04-05T21:21:26.535Z,93.00
2019-04-05T21:23:53.377Z,93.10
2019-04-05T21:26:20.422Z,93.20
2019-04-05T21:28:47.367Z,93.10
2019-04-05T21:31:14.413Z,93.20
2019-04-05T21:33:41.357Z,93.00
2019-04-05T21:36:08.301Z,92.80
2019-04-05T21:38:35.349Z,93.50
2019-04-05T21:41:02.396Z,93.90
2019-04-05T21:43:29.349Z,93.40
2019-04-05T21:45:56.283Z,93.70
2019-04-05T21:48:24.356Z,93.50
2019-04-05T21:50:51.232Z,93.10
2019-04-05T21:53:18.269Z,92.90
2019-04-05T21:55:45.186Z,93.00
2019-04-05T21:58:12.233Z,93.90
2019-04-05T22:00:41.265Z,93.60
2019-04-05T22:03:08.170Z,93.40
2019-04-05T22:05:35.114Z,93.40
2019-04-05T22:10:42.949Z,93.40
2019-04-05T22:13:09.873Z,93.20
2019-04-05T22:15:36.817Z,93.60
2019-04-05T22:18:03.864Z,93.40
2019-04-05T22:20:30.812Z,93.50
2019-04-05T22:22:57.753Z,93.50
2019-04-05T22:25:24.800Z,93.60
2019-04-05T22:27:51.846Z,93.10
2019-04-05T22:30:18.995Z,92.90
2019-04-05T22:32:45.938Z,93.00
2019-04-05T22:35:12.985Z,92.80
2019-04-05T22:37:39.930Z,92.90
2019-04-05T22:40:07.216Z,92.90
2019-04-05T22:42:34.236Z,92.70
2019-04-05T22:45:01.173Z,93.10
2019-04-05T22:47:28.221Z,92.90
2019-04-05T22:49:55.266Z,92.80
2019-04-05T22:52:22.517Z,92.90
2019-04-05T22:54:49.461Z,92.90
2019-04-05T22:57:16.508Z,92.70
2019-04-05T22:59:43.511Z,92.70
2019-04-05T23:02:10.601Z,93.00
2019-04-05T23:04:37.752Z,92.90
2019-04-05T23:07:04.899Z,93.10
2019-04-05T23:09:31.922Z,92.80
2019-04-05T23:11:58.992Z,92.90
2019-04-05T23:14:25.937Z,93.30
2019-04-05T23:16:52.983Z,93.90
2019-04-05T23:19:19.928Z,93.70
2019-04-05T23:21:46.974Z,93.70
2019-04-05T23:24:14.858Z,93.50
2019-04-05T23:26:41.784Z,93.30
2019-04-05T23:29:08.832Z,93.60
2019-04-05T23:31:35.879Z,93.30
2019-04-05T23:34:02.828Z,93.20
2019-04-05T23:36:29.767Z,93.10
2019-04-05T23:38:56.815Z,93.10
2019-04-05T23:41:23.759Z,93.10
2019-04-05T23:43:50.804Z,93.00
2019-04-05T23:46:17.748Z,93.10
2019-04-05T23:48:44.795Z,93.30
2019-04-05T23:51:11.776Z,93.20
2019-04-05T23:53:38.785Z,93.50
2019-04-05T23:56:06.260Z,93.20
2019-04-05T23:58:33.083Z,93.30
